International Virtual Aviation Organisation

Russian Federation and Kazakhstan MCD

 

Карточка аэропорта UWGG

Внимание!
Информация на этой странице в стадии наполнения.
Если вы не увидели какой-то информации, или заметили неточность - пожалуйста сообщите нам!
Спасибо!
Команда RU-STAFF
Название аэропортаСтригино
Название аэропорта (англ.)Strigino
Превышение256 ft. (78 m.)
Координаты56°13.8', 43°47.202'
Высота перехода900
Эшелон переходаBy ATC
Коды ответчика2120-2147
Зона ОрВДМосква РПИ (UUWV)
Данные METARUWGG 191530Z 26002MPS 9999 BKN040 21/16 Q1018 R18L/090070 NOSIG
Проноз погоды (TAF)UWGG 191352Z 1915/2015 27003MPS 4000 BR BKN016 TX24/2012Z TN12/2003Z TEMPO 1915/1921 25005G12MPS
NOTAMshow/hide NOTAM
AWOS   TABLE

Информация о ВПП

ВПП Длина ВПП (м.) Покрытие Курс ВПП Частота ILS
18R2805Асфальтобетон179109.9
36L2805Асфальтобетон359109.5

Диспетчерские позиции

Позывной Наименование органа УВД Частота
UWGG_GNDНижний - Руление121.800
UWGG_TWRНижний - Вышка120.400
UWGG_R_APPНижний - Круг120.800
UWGG_APPНижний - Подход124.700



Спутниковое изображение